Accueil
METAR-TAF:

METAR-TAF

Aéroports :

Aéroport de Mannheim

Mannheim, Allemagne

latitude: 49-28-21N, longitude: 008-30-56E, altitude: 100 m

Observation

Le bulletin a été fait il y a 39 minutes, à 11:20 UTC
Vent 3 kt de direction variable
Température 4°C
Humidité 75%
Pression 1016 hPa
Visibilité 10 km ou plus
Ciel couvert à une hauteur de 1700 ft

METAR: EDFM 211120Z VRB03KT 9999 OVC017 04/M00 Q1016

Heure: 12:59 (11:59 UTC)

Prévision

Le bulletin a été fait il y a 59 minutes, à 11:00 UTC
Prévision valable du 21 à 12 UTC au 21 à 21 UTC
Vent 4 kt de nord-est
Visibilité 10 km ou plus
Nuages fragmentés à une hauteur de 1500 ft
Evoluant progressivement
du 21 à 18 UTC au 21 à 20 UTC
Nuages fragmentés à une hauteur de 1300 ft

TAF: EDFM 211100Z 2112/2121 04004KT 9999 BKN015 BECMG 2118/2120 BKN013

Observations et prévisions météorologiques de plus de 4000 aéroports (messages METAR et TAF).

Les stations disponibles sont représentées par des disques jaunes et rouges sur la carte.

Passer la souris dessus pour voir le nom de la station.

Cliquer dessus pour voir les observations et prévisions météorologiques.

Pour changer de carte: cliquez sur les boutons verts avec une croix noire pour zoomer, sur le bouton vert avec un tiret pour effectuer un zoom arrière, ou sur les flèches vertes pour les cartes adjacentes.


METAR-TAF: